sensor_id;sensor_type;location;lat;lon;timestamp;pressure;altitude;pressure_sealevel;temperature;humidity
47280;BME280;34064;44.942;0.008;2023-02-16T00:00:19;100214.34;;;7.58;51.02
47280;BME280;34064;44.942;0.008;2023-02-16T00:02:47;100211.78;;;7.57;51.05
47280;BME280;34064;44.942;0.008;2023-02-16T00:05:34;100218.25;;;7.49;51.53
47280;BME280;34064;44.942;0.008;2023-02-16T00:08:02;100219.16;;;7.48;51.04
47280;BME280;34064;44.942;0.008;2023-02-16T00:10:37;100222.84;;;7.44;51.13
47280;BME280;34064;44.942;0.008;2023-02-16T00:13:34;100220.28;;;7.43;51.15
47280;BME280;34064;44.942;0.008;2023-02-16T00:16:20;100222.00;;;7.44;51.16
47280;BME280;34064;44.942;0.008;2023-02-16T00:18:49;100218.44;;;7.45;50.94
47280;BME280;34064;44.942;0.008;2023-02-16T00:21:18;100220.19;;;7.44;51.01
47280;BME280;34064;44.942;0.008;2023-02-16T00:23:45;100219.53;;;7.39;51.27
47280;BME280;34064;44.942;0.008;2023-02-16T00:26:20;100226.94;;;7.31;51.56
47280;BME280;34064;44.942;0.008;2023-02-16T00:28:53;100228.88;;;7.26;50.96
47280;BME280;34064;44.942;0.008;2023-02-16T00:31:25;100232.94;;;7.12;51.26
47280;BME280;34064;44.942;0.008;2023-02-16T00:33:55;100244.47;;;7.10;51.12
47280;BME280;34064;44.942;0.008;2023-02-16T00:36:22;100242.03;;;7.05;51.02
47280;BME280;34064;44.942;0.008;2023-02-16T00:38:53;100240.19;;;7.07;51.15
47280;BME280;34064;44.942;0.008;2023-02-16T00:41:22;100233.06;;;7.09;51.21
47280;BME280;34064;44.942;0.008;2023-02-16T00:44:29;100237.44;;;7.10;50.92
47280;BME280;34064;44.942;0.008;2023-02-16T00:47:09;100234.66;;;7.13;50.88
47280;BME280;34064;44.942;0.008;2023-02-16T00:49:40;100237.97;;;7.18;50.71
47280;BME280;34064;44.942;0.008;2023-02-16T00:55:00;100236.00;;;7.24;50.96
47280;BME280;34064;44.942;0.008;2023-02-16T00:57:31;100230.72;;;7.24;51.20
47280;BME280;34064;44.942;0.008;2023-02-16T01:02:46;100235.16;;;7.23;51.10
47280;BME280;34064;44.942;0.008;2023-02-16T01:05:18;100233.38;;;7.24;51.65
47280;BME280;34064;44.942;0.008;2023-02-16T01:07:45;100230.88;;;7.21;52.22
47280;BME280;34064;44.942;0.008;2023-02-16T01:10:32;100233.63;;;7.17;51.82
47280;BME280;34064;44.942;0.008;2023-02-16T01:13:19;100227.53;;;7.15;52.07
47280;BME280;34064;44.942;0.008;2023-02-16T01:15:47;100224.22;;;7.10;51.83
47280;BME280;34064;44.942;0.008;2023-02-16T01:18:16;100229.72;;;7.04;51.93
47280;BME280;34064;44.942;0.008;2023-02-16T01:20:45;100227.34;;;6.98;51.81
47280;BME280;34064;44.942;0.008;2023-02-16T01:23:13;100224.88;;;6.93;52.25
47280;BME280;34064;44.942;0.008;2023-02-16T01:25:41;100224.94;;;6.92;51.84
47280;BME280;34064;44.942;0.008;2023-02-16T01:28:24;100218.91;;;6.88;51.79
47280;BME280;34064;44.942;0.008;2023-02-16T01:30:54;100228.84;;;6.81;52.00
47280;BME280;34064;44.942;0.008;2023-02-16T01:33:21;100239.78;;;6.72;52.26
47280;BME280;34064;44.942;0.008;2023-02-16T01:35:50;100238.16;;;6.68;52.06
47280;BME280;34064;44.942;0.008;2023-02-16T01:38:21;100231.31;;;6.62;52.03
47280;BME280;34064;44.942;0.008;2023-02-16T01:41:12;100242.81;;;6.61;52.07
47280;BME280;34064;44.942;0.008;2023-02-16T01:44:20;100242.00;;;6.59;52.10
47280;BME280;34064;44.942;0.008;2023-02-16T01:49:31;100236.00;;;6.55;52.14
47280;BME280;34064;44.942;0.008;2023-02-16T01:52:09;100238.66;;;6.54;52.37
47280;BME280;34064;44.942;0.008;2023-02-16T01:54:51;100236.16;;;6.51;52.58
47280;BME280;34064;44.942;0.008;2023-02-16T02:02:23;100228.50;;;6.43;52.09
47280;BME280;34064;44.942;0.008;2023-02-16T02:04:59;100232.06;;;6.42;52.63
47280;BME280;34064;44.942;0.008;2023-02-16T02:13:16;100243.53;;;6.17;52.85
47280;BME280;34064;44.942;0.008;2023-02-16T02:15:45;100246.66;;;6.03;52.68
47280;BME280;34064;44.942;0.008;2023-02-16T02:18:11;100253.94;;;5.95;52.79
47280;BME280;34064;44.942;0.008;2023-02-16T02:35:03;100248.31;;;5.79;52.23
47280;BME280;34064;44.942;0.008;2023-02-16T02:37:55;100252.91;;;5.72;53.05
47280;BME280;34064;44.942;0.008;2023-02-16T02:43:20;100248.50;;;5.73;52.56
47280;BME280;34064;44.942;0.008;2023-02-16T02:45:55;100252.81;;;5.75;52.22
47280;BME280;34064;44.942;0.008;2023-02-16T02:48:28;100245.84;;;5.74;52.54
47280;BME280;34064;44.942;0.008;2023-02-16T02:54:00;100236.03;;;5.78;52.98
47280;BME280;34064;44.942;0.008;2023-02-16T02:57:07;100243.03;;;5.79;52.81
47280;BME280;34064;44.942;0.008;2023-02-16T03:08:32;100222.25;;;5.70;52.71
47280;BME280;34064;44.942;0.008;2023-02-16T03:13:57;100236.91;;;5.52;53.11
47280;BME280;34064;44.942;0.008;2023-02-16T03:16:36;100239.78;;;5.44;53.57
47280;BME280;34064;44.942;0.008;2023-02-16T03:19:06;100236.34;;;5.42;53.18
47280;BME280;34064;44.942;0.008;2023-02-16T03:21:53;100240.88;;;5.37;53.18
47280;BME280;34064;44.942;0.008;2023-02-16T03:24:39;100237.50;;;5.33;53.68
47280;BME280;34064;44.942;0.008;2023-02-16T03:27:28;100243.13;;;5.22;54.15
47280;BME280;34064;44.942;0.008;2023-02-16T03:30:14;100246.81;;;5.15;53.79
47280;BME280;34064;44.942;0.008;2023-02-16T03:32:43;100254.03;;;5.10;53.62
47280;BME280;34064;44.942;0.008;2023-02-16T03:35:11;100247.03;;;5.09;53.36
47280;BME280;34064;44.942;0.008;2023-02-16T03:37:39;100258.59;;;5.05;53.52
47280;BME280;34064;44.942;0.008;2023-02-16T03:40:10;100257.75;;;5.03;53.45
47280;BME280;34064;44.942;0.008;2023-02-16T03:43:07;100261.38;;;4.98;53.74
47280;BME280;34064;44.942;0.008;2023-02-16T03:45:36;100263.06;;;5.01;53.71
47280;BME280;34064;44.942;0.008;2023-02-16T03:48:04;100256.88;;;5.04;53.52
47280;BME280;34064;44.942;0.008;2023-02-16T03:50:32;100255.00;;;5.06;53.07
47280;BME280;34064;44.942;0.008;2023-02-16T03:53:00;100263.84;;;5.05;53.65
47280;BME280;34064;44.942;0.008;2023-02-16T03:55:35;100261.31;;;5.02;53.49
47280;BME280;34064;44.942;0.008;2023-02-16T03:58:05;100264.00;;;5.00;53.43
47280;BME280;34064;44.942;0.008;2023-02-16T04:00:33;100272.88;;;4.96;53.26
47280;BME280;34064;44.942;0.008;2023-02-16T04:03:02;100271.22;;;4.93;53.44
47280;BME280;34064;44.942;0.008;2023-02-16T04:05:30;100267.75;;;4.91;53.13
47280;BME280;34064;44.942;0.008;2023-02-16T04:07:58;100273.94;;;4.90;54.01
47280;BME280;34064;44.942;0.008;2023-02-16T04:10:26;100272.88;;;4.96;52.99
47280;BME280;34064;44.942;0.008;2023-02-16T04:12:53;100259.56;;;5.00;52.83
47280;BME280;34064;44.942;0.008;2023-02-16T04:15:24;100263.03;;;5.03;53.50
47280;BME280;34064;44.942;0.008;2023-02-16T04:17:52;100256.81;;;5.05;53.37
47280;BME280;34064;44.942;0.008;2023-02-16T04:20:26;100258.53;;;5.06;53.51
47280;BME280;34064;44.942;0.008;2023-02-16T04:22:54;100255.84;;;5.08;53.21
47280;BME280;34064;44.942;0.008;2023-02-16T04:25:22;100252.28;;;5.09;53.43
47280;BME280;34064;44.942;0.008;2023-02-16T04:27:50;100248.75;;;5.10;53.22
47280;BME280;34064;44.942;0.008;2023-02-16T04:30:23;100252.38;;;5.06;53.88
47280;BME280;34064;44.942;0.008;2023-02-16T04:32:51;100258.53;;;5.06;54.07
47280;BME280;34064;44.942;0.008;2023-02-16T04:35:19;100265.75;;;4.99;53.96
47280;BME280;34064;44.942;0.008;2023-02-16T04:37:47;100270.19;;;4.97;53.78
47280;BME280;34064;44.942;0.008;2023-02-16T04:40:15;100269.53;;;4.91;53.52
47280;BME280;34064;44.942;0.008;2023-02-16T04:42:43;100274.00;;;4.87;53.49
47280;BME280;34064;44.942;0.008;2023-02-16T04:45:12;100272.31;;;4.86;53.35
47280;BME280;34064;44.942;0.008;2023-02-16T04:47:39;100273.16;;;4.87;53.69
47280;BME280;34064;44.942;0.008;2023-02-16T04:50:07;100272.25;;;4.88;53.67
47280;BME280;34064;44.942;0.008;2023-02-16T04:52:34;100275.75;;;4.88;54.00
47280;BME280;34064;44.942;0.008;2023-02-16T04:55:02;100266.94;;;4.89;53.94
47280;BME280;34064;44.942;0.008;2023-02-16T04:57:31;100264.28;;;4.91;54.21
47280;BME280;34064;44.942;0.008;2023-02-16T04:59:58;100264.31;;;4.89;54.55
47280;BME280;34064;44.942;0.008;2023-02-16T05:02:25;100265.19;;;4.90;54.18
47280;BME280;34064;44.942;0.008;2023-02-16T05:04:52;100264.34;;;4.88;53.90
47280;BME280;34064;44.942;0.008;2023-02-16T05:07:18;100271.56;;;4.81;54.50
47280;BME280;34064;44.942;0.008;2023-02-16T05:09:45;100289.22;;;4.77;54.02
47280;BME280;34064;44.942;0.008;2023-02-16T05:12:12;100279.72;;;4.72;54.03
47280;BME280;34064;44.942;0.008;2023-02-16T05:14:57;100280.69;;;4.69;53.88
47280;BME280;34064;44.942;0.008;2023-02-16T05:17:25;100283.38;;;4.67;54.13
47280;BME280;34064;44.942;0.008;2023-02-16T05:19:53;100288.66;;;4.67;53.66
47280;BME280;34064;44.942;0.008;2023-02-16T05:22:20;100291.31;;;4.66;53.86
47280;BME280;34064;44.942;0.008;2023-02-16T05:24:47;100286.03;;;4.66;53.60
47280;BME280;34064;44.942;0.008;2023-02-16T05:27:17;100289.63;;;4.63;53.77
47280;BME280;34064;44.942;0.008;2023-02-16T05:29:44;100293.28;;;4.58;53.83
47280;BME280;34064;44.942;0.008;2023-02-16T05:32:11;100290.78;;;4.53;54.07
47280;BME280;34064;44.942;0.008;2023-02-16T05:34:38;100292.59;;;4.51;54.15
47280;BME280;34064;44.942;0.008;2023-02-16T05:37:05;100294.38;;;4.50;53.73
47280;BME280;34064;44.942;0.008;2023-02-16T05:39:32;100290.97;;;4.47;54.31
47280;BME280;34064;44.942;0.008;2023-02-16T05:42:00;100290.97;;;4.47;54.15
47280;BME280;34064;44.942;0.008;2023-02-16T05:44:27;100299.75;;;4.46;54.08
47280;BME280;34064;44.942;0.008;2023-02-16T05:46:55;100292.81;;;4.43;54.30
47280;BME280;34064;44.942;0.008;2023-02-16T05:49:23;100298.16;;;4.40;54.10
47280;BME280;34064;44.942;0.008;2023-02-16T05:51:51;100301.75;;;4.37;54.25
47280;BME280;34064;44.942;0.008;2023-02-16T05:54:19;100298.28;;;4.35;54.09
47280;BME280;34064;44.942;0.008;2023-02-16T05:56:50;100298.34;;;4.32;54.12
47280;BME280;34064;44.942;0.008;2023-02-16T05:59:18;100304.56;;;4.30;54.07
47280;BME280;34064;44.942;0.008;2023-02-16T06:01:46;100302.91;;;4.27;53.83
47280;BME280;34064;44.942;0.008;2023-02-16T06:04:14;100304.69;;;4.25;54.35
47280;BME280;34064;44.942;0.008;2023-02-16T06:06:42;100304.66;;;4.27;54.27
47280;BME280;34064;44.942;0.008;2023-02-16T06:09:10;100309.91;;;4.27;54.33
47280;BME280;34064;44.942;0.008;2023-02-16T06:11:37;100312.66;;;4.22;54.70
47280;BME280;34064;44.942;0.008;2023-02-16T06:14:14;100319.78;;;4.18;54.14
47280;BME280;34064;44.942;0.008;2023-02-16T06:16:45;100318.03;;;4.19;54.45
47280;BME280;34064;44.942;0.008;2023-02-16T06:19:14;100321.50;;;4.19;54.26
47280;BME280;34064;44.942;0.008;2023-02-16T06:21:42;100315.28;;;4.22;54.11
47280;BME280;34064;44.942;0.008;2023-02-16T06:24:12;100320.53;;;4.24;54.19
47280;BME280;34064;44.942;0.008;2023-02-16T06:26:40;100308.22;;;4.24;54.29
47280;BME280;34064;44.942;0.008;2023-02-16T06:29:08;100317.03;;;4.23;54.42
47280;BME280;34064;44.942;0.008;2023-02-16T06:31:36;100330.16;;;4.23;54.46
47280;BME280;34064;44.942;0.008;2023-02-16T06:34:04;100328.44;;;4.22;54.56
47280;BME280;34064;44.942;0.008;2023-02-16T06:36:32;100332.09;;;4.16;54.39
47280;BME280;34064;44.942;0.008;2023-02-16T06:39:00;100324.31;;;4.13;54.71
47280;BME280;34064;44.942;0.008;2023-02-16T06:41:27;100332.31;;;4.09;54.79
47280;BME280;34064;44.942;0.008;2023-02-16T06:44:06;100332.44;;;4.02;54.62
47280;BME280;34064;44.942;0.008;2023-02-16T06:46:34;100328.13;;;4.01;54.68
47280;BME280;34064;44.942;0.008;2023-02-16T06:49:02;100332.53;;;3.99;54.64
47280;BME280;34064;44.942;0.008;2023-02-16T06:51:29;100327.34;;;3.96;54.72
47280;BME280;34064;44.942;0.008;2023-02-16T06:53:56;100324.78;;;3.93;55.12
47280;BME280;34064;44.942;0.008;2023-02-16T06:56:22;100330.16;;;3.88;54.93
47280;BME280;34064;44.942;0.008;2023-02-16T06:58:49;100340.78;;;3.85;55.33
47280;BME280;34064;44.942;0.008;2023-02-16T07:01:16;100340.88;;;3.81;55.04
47280;BME280;34064;44.942;0.008;2023-02-16T07:03:48;100348.84;;;3.78;54.85
47280;BME280;34064;44.942;0.008;2023-02-16T07:06:16;100348.84;;;3.78;54.82
47280;BME280;34064;44.942;0.008;2023-02-16T07:08:44;100356.72;;;3.78;54.86
47280;BME280;34064;44.942;0.008;2023-02-16T07:11:12;100357.72;;;3.72;54.71
47280;BME280;34064;44.942;0.008;2023-02-16T07:13:40;100364.75;;;3.71;54.57
47280;BME280;34064;44.942;0.008;2023-02-16T07:16:07;100367.41;;;3.70;54.81
47280;BME280;34064;44.942;0.008;2023-02-16T07:18:35;100367.38;;;3.71;54.48
47280;BME280;34064;44.942;0.008;2023-02-16T07:21:03;100364.75;;;3.71;54.88
47280;BME280;34064;44.942;0.008;2023-02-16T07:23:32;100370.88;;;3.72;54.74
47280;BME280;34064;44.942;0.008;2023-02-16T07:25:59;100368.19;;;3.73;54.54
47280;BME280;34064;44.942;0.008;2023-02-16T07:28:25;100369.06;;;3.74;55.02
47280;BME280;34064;44.942;0.008;2023-02-16T07:30:51;100364.59;;;3.78;55.30
47280;BME280;34064;44.942;0.008;2023-02-16T07:33:18;100371.59;;;3.79;55.60
47280;BME280;34064;44.942;0.008;2023-02-16T07:35:45;100376.03;;;3.77;54.94
47280;BME280;34064;44.942;0.008;2023-02-16T07:38:12;100382.25;;;3.72;54.91
47280;BME280;34064;44.942;0.008;2023-02-16T07:40:38;100392.84;;;3.69;55.23
47280;BME280;34064;44.942;0.008;2023-02-16T07:43:05;100398.94;;;3.70;55.59
47280;BME280;34064;44.942;0.008;2023-02-16T07:45:32;100380.38;;;3.78;55.18
47280;BME280;34064;44.942;0.008;2023-02-16T07:47:59;100389.06;;;3.81;54.90
47280;BME280;34064;44.942;0.008;2023-02-16T07:50:26;100393.34;;;3.85;55.32
47280;BME280;34064;44.942;0.008;2023-02-16T07:52:52;100387.09;;;3.91;54.76
47280;BME280;34064;44.942;0.008;2023-02-16T07:55:19;100383.47;;;3.95;54.78
47280;BME280;34064;44.942;0.008;2023-02-16T07:57:45;100387.72;;;4.01;54.92
47280;BME280;34064;44.942;0.008;2023-02-16T08:00:14;100384.13;;;4.05;54.70
47280;BME280;34064;44.942;0.008;2023-02-16T08:02:41;100381.28;;;4.13;54.98
47280;BME280;34064;44.942;0.008;2023-02-16T08:05:07;100376.69;;;4.22;54.48
47280;BME280;34064;44.942;0.008;2023-02-16T08:07:34;100372.13;;;4.29;54.86
47280;BME280;34064;44.942;0.008;2023-02-16T08:10:00;100380.59;;;4.41;54.94
47280;BME280;34064;44.942;0.008;2023-02-16T08:12:26;100368.91;;;4.51;54.83
47280;BME280;34064;44.942;0.008;2023-02-16T08:14:53;100362.50;;;4.61;54.33
47280;BME280;34064;44.942;0.008;2023-02-16T08:17:19;100363.13;;;4.71;54.59
47280;BME280;34064;44.942;0.008;2023-02-16T08:19:45;100362.88;;;4.80;54.63
47280;BME280;34064;44.942;0.008;2023-02-16T08:22:12;100363.47;;;4.90;55.25
47280;BME280;34064;44.942;0.008;2023-02-16T08:24:38;100371.94;;;5.02;54.60
47280;BME280;34064;44.942;0.008;2023-02-16T08:27:05;100358.50;;;5.11;54.64
47280;BME280;34064;44.942;0.008;2023-02-16T08:29:32;100360.78;;;5.23;54.82
47280;BME280;34064;44.942;0.008;2023-02-16T08:31:59;100359.53;;;5.35;55.10
47280;BME280;34064;44.942;0.008;2023-02-16T08:34:26;100361.00;;;5.45;55.55
47280;BME280;34064;44.942;0.008;2023-02-16T08:36:54;100352.66;;;5.59;55.25
47280;BME280;34064;44.942;0.008;2023-02-16T08:39:24;100357.44;;;5.75;55.74
47280;BME280;34064;44.942;0.008;2023-02-16T08:41:52;100355.31;;;5.86;56.31
47280;BME280;34064;44.942;0.008;2023-02-16T08:44:20;100347.94;;;5.98;56.31
47280;BME280;34064;44.942;0.008;2023-02-16T08:46:48;100345.72;;;6.12;56.91
47280;BME280;34064;44.942;0.008;2023-02-16T08:49:17;100340.69;;;6.31;56.73
47280;BME280;34064;44.942;0.008;2023-02-16T08:51:49;100337.44;;;6.48;57.02
47280;BME280;34064;44.942;0.008;2023-02-16T08:54:21;100334.28;;;6.64;57.26
47280;BME280;34064;44.942;0.008;2023-02-16T08:56:50;100323.84;;;6.84;57.64
47280;BME280;34064;44.942;0.008;2023-02-16T08:59:19;100325.81;;;7.03;57.75
47280;BME280;34064;44.942;0.008;2023-02-16T09:01:47;100325.78;;;7.27;58.90
47280;BME280;34064;44.942;0.008;2023-02-16T09:04:14;100313.47;;;7.48;59.09
47280;BME280;34064;44.942;0.008;2023-02-16T09:06:42;100312.56;;;7.71;59.26
47280;BME280;34064;44.942;0.008;2023-02-16T09:09:10;100308.22;;;7.91;59.99
47280;BME280;34064;44.942;0.008;2023-02-16T09:11:38;100296.63;;;8.16;59.57
47280;BME280;34064;44.942;0.008;2023-02-16T09:14:05;100303.06;;;8.31;59.86
47280;BME280;34064;44.942;0.008;2023-02-16T09:16:32;100304.06;;;8.49;59.28
47280;BME280;34064;44.942;0.008;2023-02-16T09:19:01;100292.72;;;8.66;59.61
47280;BME280;34064;44.942;0.008;2023-02-16T09:21:28;100288.44;;;8.82;60.00
47280;BME280;34064;44.942;0.008;2023-02-16T09:24:02;100288.72;;;8.95;59.24
47280;BME280;34064;44.942;0.008;2023-02-16T09:26:34;100284.44;;;9.12;59.38
47280;BME280;34064;44.942;0.008;2023-02-16T09:29:04;100282.13;;;9.23;59.24
47280;BME280;34064;44.942;0.008;2023-02-16T09:31:33;100278.78;;;9.39;58.90
47280;BME280;34064;44.942;0.008;2023-02-16T09:34:03;100264.59;;;9.57;59.41
47280;BME280;34064;44.942;0.008;2023-02-16T09:36:30;100256.66;;;9.75;58.96
47280;BME280;34064;44.942;0.008;2023-02-16T09:38:57;100257.75;;;9.88;58.79
47280;BME280;34064;44.942;0.008;2023-02-16T09:47:28;100260.41;;;10.23;58.97
47280;BME280;34064;44.942;0.008;2023-02-16T09:50:04;100245.53;;;10.37;58.76
47280;BME280;34064;44.942;0.008;2023-02-16T09:55:21;100244.19;;;10.63;58.84
47280;BME280;34064;44.942;0.008;2023-02-16T09:57:59;100244.72;;;10.70;58.49
47280;BME280;34064;44.942;0.008;2023-02-16T10:00:39;100252.50;;;10.73;58.18
47280;BME280;34064;44.942;0.008;2023-02-16T10:09:13;100247.63;;;10.97;58.24
47280;BME280;34064;44.942;0.008;2023-02-16T10:12:05;100243.88;;;11.01;58.10
47280;BME280;34064;44.942;0.008;2023-02-16T10:14:41;100246.44;;;11.03;57.81
47280;BME280;34064;44.942;0.008;2023-02-16T10:20:03;100251.25;;;11.12;58.10
47280;BME280;34064;44.942;0.008;2023-02-16T10:22:51;100247.81;;;11.26;57.76
47280;BME280;34064;44.942;0.008;2023-02-16T10:25:25;100243.38;;;11.43;57.57
47280;BME280;34064;44.942;0.008;2023-02-16T10:28:14;100228.28;;;11.58;57.54
47280;BME280;34064;44.942;0.008;2023-02-16T10:31:02;100235.41;;;11.73;57.22
47280;BME280;34064;44.942;0.008;2023-02-16T10:33:45;100217.72;;;11.86;57.00
47280;BME280;34064;44.942;0.008;2023-02-16T10:47:38;100206.31;;;12.58;55.77
47280;BME280;34064;44.942;0.008;2023-02-16T10:50:14;100206.50;;;12.70;55.72
47280;BME280;34064;44.942;0.008;2023-02-16T10:52:44;100195.31;;;12.92;55.31
47280;BME280;34064;44.942;0.008;2023-02-16T10:55:11;100188.25;;;13.05;55.23
47280;BME280;34064;44.942;0.008;2023-02-16T10:57:39;100181.59;;;13.25;54.96
47280;BME280;34064;44.942;0.008;2023-02-16T11:00:14;100176.84;;;13.31;54.70
47280;BME280;34064;44.942;0.008;2023-02-16T11:02:44;100178.50;;;13.46;54.51
47280;BME280;34064;44.942;0.008;2023-02-16T11:05:35;100173.31;;;13.70;53.83
47280;BME280;34064;44.942;0.008;2023-02-16T11:08:04;100170.88;;;13.80;53.18
47280;BME280;34064;44.942;0.008;2023-02-16T11:13:04;100182.53;;;13.92;53.38
47280;BME280;34064;44.942;0.008;2023-02-16T11:15:31;100182.13;;;13.98;53.45
47280;BME280;34064;44.942;0.008;2023-02-16T11:18:05;100174.41;;;14.07;53.21
47280;BME280;34064;44.942;0.008;2023-02-16T11:23:22;100166.94;;;14.38;52.97
47280;BME280;34064;44.942;0.008;2023-02-16T11:39:53;100117.38;;;15.19;51.31
47280;BME280;34064;44.942;0.008;2023-02-16T11:42:40;100103.28;;;15.28;50.88
47280;BME280;34064;44.942;0.008;2023-02-16T11:48:10;100108.47;;;15.54;50.87
47280;BME280;34064;44.942;0.008;2023-02-16T11:53:26;100097.06;;;15.75;50.11
47280;BME280;34064;44.942;0.008;2023-02-16T11:58:39;100083.13;;;15.94;49.72
47280;BME280;34064;44.942;0.008;2023-02-16T12:01:28;100085.19;;;16.02;49.97
47280;BME280;34064;44.942;0.008;2023-02-16T12:15:17;100051.97;;;16.60;48.16
47280;BME280;34064;44.942;0.008;2023-02-16T12:20:28;100044.84;;;16.81;48.23
47280;BME280;34064;44.942;0.008;2023-02-16T12:23:23;100031.38;;;16.93;47.95
47280;BME280;34064;44.942;0.008;2023-02-16T12:26:17;100030.88;;;16.99;47.15
47280;BME280;34064;44.942;0.008;2023-02-16T12:42:07;100003.78;;;17.44;46.18
47280;BME280;34064;44.942;0.008;2023-02-16T12:44:40;100004.69;;;17.55;45.61
47280;BME280;34064;44.942;0.008;2023-02-16T12:47:25;100005.84;;;17.62;45.45
47280;BME280;34064;44.942;0.008;2023-02-16T12:50:04;99996.28;;;17.69;45.38
47280;BME280;34064;44.942;0.008;2023-02-16T12:52:47;99991.81;;;17.80;45.01
47280;BME280;34064;44.942;0.008;2023-02-16T13:03:38;99965.91;;;18.19;44.34
47280;BME280;34064;44.942;0.008;2023-02-16T13:11:37;99955.47;;;18.46;44.12
47280;BME280;34064;44.942;0.008;2023-02-16T13:14:21;99945.72;;;18.64;43.30
47280;BME280;34064;44.942;0.008;2023-02-16T13:16:58;99949.78;;;18.68;43.41
47280;BME280;34064;44.942;0.008;2023-02-16T13:19:25;99943.88;;;18.75;42.54
47280;BME280;34064;44.942;0.008;2023-02-16T13:28:42;99925.16;;;18.93;41.74
47280;BME280;34064;44.942;0.008;2023-02-16T13:32:12;99923.47;;;19.01;41.60
47280;BME280;34064;44.942;0.008;2023-02-16T13:45:02;99887.19;;;19.33;41.28
47280;BME280;34064;44.942;0.008;2023-02-16T13:47:37;99875.25;;;19.46;41.64
47280;BME280;34064;44.942;0.008;2023-02-16T13:50:07;99870.66;;;19.56;41.23
47280;BME280;34064;44.942;0.008;2023-02-16T13:52:41;99874.97;;;19.67;41.01
47280;BME280;34064;44.942;0.008;2023-02-16T14:00:48;99854.13;;;19.97;39.75
47280;BME280;34064;44.942;0.008;2023-02-16T14:05:49;99857.38;;;20.19;39.01
47280;BME280;34064;44.942;0.008;2023-02-16T14:08:29;99852.03;;;20.27;37.93
47280;BME280;34064;44.942;0.008;2023-02-16T14:11:05;99852.75;;;20.29;38.74
47280;BME280;34064;44.942;0.008;2023-02-16T14:21:46;99851.22;;;20.53;36.95
47280;BME280;34064;44.942;0.008;2023-02-16T14:27:00;99854.63;;;20.55;36.19
47280;BME280;34064;44.942;0.008;2023-02-16T14:29:31;99857.28;;;20.47;36.75
47280;BME280;34064;44.942;0.008;2023-02-16T14:38:06;99890.72;;;20.00;36.93
47280;BME280;34064;44.942;0.008;2023-02-16T14:41:11;99895.34;;;19.79;37.31
47280;BME280;34064;44.942;0.008;2023-02-16T14:43:45;99896.41;;;19.69;37.60
47280;BME280;34064;44.942;0.008;2023-02-16T15:03:22;99883.09;;;20.31;38.05
47280;BME280;34064;44.942;0.008;2023-02-16T15:05:56;99883.25;;;20.30;38.05
47280;BME280;34064;44.942;0.008;2023-02-16T15:08:29;99876.22;;;20.37;38.42
47280;BME280;34064;44.942;0.008;2023-02-16T15:13:53;99860.88;;;20.73;38.10
47280;BME280;34064;44.942;0.008;2023-02-16T15:16:22;99853.34;;;20.85;37.16
47280;BME280;34064;44.942;0.008;2023-02-16T15:18:50;99853.88;;;20.89;36.26
47280;BME280;34064;44.942;0.008;2023-02-16T15:21:25;99854.75;;;20.90;36.12
47280;BME280;34064;44.942;0.008;2023-02-16T15:23:58;99853.34;;;20.85;36.40
47280;BME280;34064;44.942;0.008;2023-02-16T15:26:31;99852.75;;;20.92;36.28
47280;BME280;34064;44.942;0.008;2023-02-16T15:31:41;99836.00;;;21.23;36.16
47280;BME280;34064;44.942;0.008;2023-02-16T15:34:13;99834.00;;;21.25;35.90
47280;BME280;34064;44.942;0.008;2023-02-16T15:36:51;99834.53;;;21.37;35.59
47280;BME280;34064;44.942;0.008;2023-02-16T15:39:32;99833.41;;;21.39;35.07
47280;BME280;34064;44.942;0.008;2023-02-16T15:42:20;99839.50;;;21.49;35.03
47280;BME280;34064;44.942;0.008;2023-02-16T15:44:46;99833.81;;;21.61;34.58
47280;BME280;34064;44.942;0.008;2023-02-16T15:47:22;99836.16;;;21.56;34.09
47280;BME280;34064;44.942;0.008;2023-02-16T15:49:54;99840.88;;;21.54;34.06
47280;BME280;34064;44.942;0.008;2023-02-16T15:52:28;99849.28;;;21.50;33.63
47280;BME280;34064;44.942;0.008;2023-02-16T15:54:58;99843.22;;;21.48;34.38
47280;BME280;34064;44.942;0.008;2023-02-16T15:57:30;99845.44;;;21.53;35.00
47280;BME280;34064;44.942;0.008;2023-02-16T15:59:59;99844.94;;;21.58;34.80
47280;BME280;34064;44.942;0.008;2023-02-16T16:02:41;99837.38;;;21.61;34.35
47280;BME280;34064;44.942;0.008;2023-02-16T16:05:31;99829.78;;;21.65;34.19
47280;BME280;34064;44.942;0.008;2023-02-16T16:08:02;99841.28;;;21.67;34.19
47280;BME280;34064;44.942;0.008;2023-02-16T16:10:34;99835.34;;;21.63;34.14
47280;BME280;34064;44.942;0.008;2023-02-16T16:13:28;99852.00;;;21.50;34.19
47280;BME280;34064;44.942;0.008;2023-02-16T16:15:57;99855.63;;;21.33;34.63
47280;BME280;34064;44.942;0.008;2023-02-16T16:21:26;99859.28;;;21.15;34.65
47280;BME280;34064;44.942;0.008;2023-02-16T16:24:06;99864.88;;;21.22;34.65
47280;BME280;34064;44.942;0.008;2023-02-16T16:26:53;99859.06;;;21.43;34.13
47280;BME280;34064;44.942;0.008;2023-02-16T16:29:39;99853.69;;;21.51;34.24
47280;BME280;34064;44.942;0.008;2023-02-16T16:34:42;99781.97;;;23.29;31.36
47280;BME280;34064;44.942;0.008;2023-02-16T16:42:27;99793.78;;;23.45;31.35
47280;BME280;34064;44.942;0.008;2023-02-16T16:44:59;99803.19;;;23.09;32.35
47280;BME280;34064;44.942;0.008;2023-02-16T16:47:36;99827.19;;;22.64;32.96
47280;BME280;34064;44.942;0.008;2023-02-16T16:52:41;99885.50;;;21.23;34.70
47280;BME280;34064;44.942;0.008;2023-02-16T16:57:56;99917.19;;;20.50;35.91
47280;BME280;34064;44.942;0.008;2023-02-16T17:00:27;99930.94;;;20.11;36.25
47280;BME280;34064;44.942;0.008;2023-02-16T17:02:54;99939.91;;;19.84;36.54
47280;BME280;34064;44.942;0.008;2023-02-16T17:05:20;99954.19;;;19.56;37.10
47280;BME280;34064;44.942;0.008;2023-02-16T17:07:46;99960.81;;;19.24;37.54
47280;BME280;34064;44.942;0.008;2023-02-16T17:10:16;99967.66;;;18.99;37.68
47280;BME280;34064;44.942;0.008;2023-02-16T17:12:44;99980.53;;;18.76;38.14
47280;BME280;34064;44.942;0.008;2023-02-16T17:15:36;99997.22;;;18.50;38.36